^^
Saratoga-Weather Station Historical Data
Daily Summary for April 26, 2021 Units:  Metric    English   Both
Daily Weekly Monthly Yearly Custom
  High: Low: Average:
Temperature: 16.6 °C 14.5 °C 15.7 °C
Dew Point: 16 °C 14 °C 15.2 °C
Humidity: 97% 96% 97%
Wind Speed: 0km/h 0km/h 0km/h
Wind Gust: 0km/h - -
Wind- -
Pressure: 1009.8 hPa 1009.1 hPa -
Precipitation: 0.0 mm    
Historical Graphs
 
 
Tabular Data for April 26, 2021
Time Temperature Dew Point Pressure Wind Wind Speed Wind Gust Humidity Rainfall Rate (Hourly) solar
00:00 16.6 °C 16 °C 1009.5 hPa Calm     96% 0.0 mm 0 W/m2
00:05 16.6 °C 16 °C 1009.5 hPa Calm     96% 0.0 mm 0 W/m2
00:10 16.6 °C 16 °C 1009.1 hPa Calm     96% 0.0 mm 0 W/m2
00:15 16.4 °C 15.8 °C 1009.5 hPa Calm     96% 0.0 mm 0 W/m2
00:20 16.4 °C 15.8 °C 1009.5 hPa Calm     96% 0.0 mm 0 W/m2
00:41 16.4 °C 15.8 °C 1009.5 hPa Calm     96% 0.0 mm 0 W/m2
00:46 16.4 °C 15.8 °C 1009.5 hPa Calm     96% 0.0 mm 0 W/m2
00:51 16.4 °C 15.8 °C 1009.5 hPa Calm     96% 0.0 mm 0 W/m2
00:56 16.4 °C 15.8 °C 1009.5 hPa Calm     96% 0.0 mm 0 W/m2
01:01 16.4 °C 15.8 °C 1009.5 hPa Calm     96% 0.0 mm 0 W/m2
01:06 16.3 °C 15.7 °C 1009.5 hPa Calm     96% 0.0 mm 0 W/m2
01:11 16.3 °C 15.7 °C 1009.5 hPa Calm     96% 0.0 mm 0 W/m2
01:16 16.3 °C 15.7 °C 1009.5 hPa Calm     96% 0.0 mm 0 W/m2
01:22 16.3 °C 15.8 °C 1009.5 hPa Calm     97% 0.0 mm 0 W/m2
01:27 16.2 °C 15.7 °C 1009.5 hPa Calm     97% 0.0 mm 0 W/m2
01:32 16.2 °C 15.7 °C 1009.5 hPa Calm     97% 0.0 mm 0 W/m2
01:37 16.2 °C 15.7 °C 1009.5 hPa Calm     97% 0.0 mm 0 W/m2
01:42 16.2 °C 15.6 °C 1009.5 hPa Calm     96% 0.0 mm 0 W/m2
01:47 16.2 °C 15.7 °C 1009.5 hPa Calm     97% 0.0 mm 0 W/m2
01:52 16.3 °C 15.8 °C 1009.5 hPa Calm     97% 0.0 mm 0 W/m2
01:57 16.3 °C 15.8 °C 1009.5 hPa Calm     97% 0.0 mm 0 W/m2
02:14 16.2 °C 15.7 °C 1009.1 hPa Calm     97% 0.0 mm 0 W/m2
02:19 16.2 °C 15.7 °C 1009.1 hPa Calm     97% 0.0 mm 0 W/m2
02:24 16.1 °C 15.6 °C 1009.1 hPa Calm     97% 0.0 mm 0 W/m2
02:29 16.1 °C 15.6 °C 1009.1 hPa Calm     97% 0.0 mm 0 W/m2
02:34 16.1 °C 15.6 °C 1009.1 hPa Calm     97% 0.0 mm 0 W/m2
02:39 16.1 °C 15.6 °C 1009.1 hPa Calm     97% 0.0 mm 0 W/m2
02:44 16 °C 15.5 °C 1009.1 hPa Calm     97% 0.0 mm 0 W/m2
02:49 15.9 °C 15.4 °C 1009.1 hPa Calm     97% 0.0 mm 0 W/m2
02:54 15.9 °C 15.4 °C 1009.1 hPa Calm     97% 0.0 mm 0 W/m2
02:59 15.8 °C 15.2 °C 1009.1 hPa Calm     96% 0.0 mm 0 W/m2
03:04 15.8 °C 15.3 °C 1009.1 hPa Calm     97% 0.0 mm 0 W/m2
03:09 15.7 °C 15.2 °C 1009.1 hPa Calm     97% 0.0 mm 0 W/m2
03:25 15.5 °C 15 °C 1009.1 hPa Calm     97% 0.0 mm 0 W/m2
03:30 15.4 °C 14.9 °C 1009.1 hPa Calm     97% 0.0 mm 0 W/m2
03:35 15.4 °C 14.9 °C 1009.5 hPa Calm     97% 0.0 mm 0 W/m2
03:40 15.4 °C 14.9 °C 1009.5 hPa Calm     97% 0.0 mm 0 W/m2
03:45 15.3 °C 14.8 °C 1009.5 hPa Calm     97% 0.0 mm 0 W/m2
03:50 15.3 °C 14.8 °C 1009.5 hPa Calm     97% 0.0 mm 0 W/m2
03:55 15.2 °C 14.7 °C 1009.5 hPa Calm     97% 0.0 mm 0 W/m2
04:00 15.2 °C 14.7 °C 1009.5 hPa Calm     97% 0.0 mm 0 W/m2
04:05 15.1 °C 14.6 °C 1009.5 hPa Calm     97% 0.0 mm 0 W/m2
04:10 15.1 °C 14.6 °C 1009.5 hPa Calm     97% 0.0 mm 0 W/m2
04:15 15.2 °C 14.7 °C 1009.8 hPa Calm     97% 0.0 mm 0 W/m2
04:20 15.2 °C 14.7 °C 1009.8 hPa Calm     97% 0.0 mm 0 W/m2
04:25 15.2 °C 14.7 °C 1009.8 hPa Calm     97% 0.0 mm 0 W/m2
04:30 15.2 °C 14.7 °C 1009.8 hPa Calm     97% 0.0 mm 0 W/m2
04:35 15.2 °C 14.7 °C 1009.8 hPa Calm     97% 0.0 mm 0 W/m2
04:40 15.1 °C 14.6 °C 1009.8 hPa Calm     97% 0.0 mm 0 W/m2
04:45 15 °C 14.5 °C 1009.8 hPa Calm     97% 0.0 mm 0 W/m2
04:50 14.9 °C 14.4 °C 1009.8 hPa Calm     97% 0.0 mm 0 W/m2
04:55 14.8 °C 14.3 °C 1009.8 hPa Calm     97% 0.0 mm 0 W/m2
05:00 14.8 °C 14.3 °C 1009.8 hPa Calm     97% 0.0 mm 0 W/m2
05:05 14.7 °C 14.2 °C 1009.8 hPa Calm     97% 0.0 mm 0 W/m2
05:10 14.7 °C 14.2 °C 1009.8 hPa Calm     97% 0.0 mm 0 W/m2
05:15 14.7 °C 14.2 °C 1009.8 hPa Calm     97% 0.0 mm 0 W/m2
05:20 14.6 °C 14.1 °C 1009.8 hPa Calm     97% 0.0 mm 0 W/m2
05:25 14.6 °C 14.1 °C 1009.8 hPa Calm     97% 0.0 mm 0 W/m2
05:30 14.5 °C 14 °C 1009.8 hPa Calm     97% 0.0 mm 0 W/m2
05:35 14.5 °C 14 °C 1009.8 hPa Calm     97% 0.0 mm 0 W/m2
Juneau County Weather
Compliments of Weather Underground - 2 mb